createdAt,value
2018-06-04T00:00:00.601Z,10.03
2018-06-04T00:02:29.324Z,9.10
2018-06-04T00:04:57.915Z,8.33
2018-06-04T00:07:26.540Z,10.20
2018-06-04T00:09:55.161Z,9.73
2018-06-04T00:12:24.754Z,10.37
2018-06-04T00:14:53.388Z,9.40
2018-06-04T00:17:22.083Z,10.57
2018-06-04T00:19:50.887Z,9.73
2018-06-04T00:22:19.538Z,8.63
2018-06-04T00:24:48.199Z,9.93
2018-06-04T00:27:16.810Z,9.97
2018-06-04T00:29:45.500Z,8.37
2018-06-04T00:32:14.637Z,9.10
2018-06-04T00:34:43.237Z,8.97
2018-06-04T00:37:11.887Z,9.43
2018-06-04T00:39:40.509Z,9.83
2018-06-04T00:42:09.116Z,9.50
2018-06-04T00:44:37.817Z,10.03
2018-06-04T00:47:06.486Z,9.93
2018-06-04T00:49:35.306Z,10.00
2018-06-04T00:52:03.973Z,10.00
2018-06-04T00:54:32.807Z,9.23
2018-06-04T00:57:01.551Z,10.13
2018-06-04T00:59:30.188Z,9.07
2018-06-04T01:01:58.832Z,10.60
2018-06-04T01:04:27.464Z,9.60
2018-06-04T01:06:56.131Z,8.83
2018-06-04T01:09:24.748Z,9.10
2018-06-04T01:11:54.161Z,9.07
2018-06-04T01:14:22.781Z,9.80
2018-06-04T01:16:51.423Z,10.43
2018-06-04T01:19:20.183Z,10.93
2018-06-04T01:21:48.805Z,9.73
2018-06-04T01:24:17.436Z,9.90
2018-06-04T01:26:46.027Z,11.10
2018-06-04T01:29:14.652Z,10.13
2018-06-04T01:31:43.310Z,10.27
2018-06-04T01:34:11.937Z,10.97
2018-06-04T01:36:40.549Z,11.07
2018-06-04T01:39:09.188Z,10.30
2018-06-04T01:41:38.514Z,10.83
2018-06-04T01:44:07.154Z,10.87
2018-06-04T01:46:36.474Z,11.63
2018-06-04T01:49:05.453Z,11.40
2018-06-04T01:51:34.133Z,11.13
2018-06-04T01:54:02.429Z,12.17
2018-06-04T01:56:34.280Z,12.13
2018-06-04T01:59:04.634Z,12.87
2018-06-04T02:01:36.559Z,11.67
2018-06-04T02:04:07.835Z,11.60
2018-06-04T02:06:38.757Z,11.23
2018-06-04T02:09:07.752Z,13.07
2018-06-04T02:11:36.420Z,12.17
2018-06-04T02:14:05.742Z,14.30
2018-06-04T02:16:34.477Z,14.30
2018-06-04T02:19:03.243Z,12.87
2018-06-04T02:21:32.797Z,13.03
2018-06-04T02:24:01.414Z,12.60
2018-06-04T02:26:31.052Z,13.73
2018-06-04T02:28:59.686Z,13.03
2018-06-04T02:31:28.322Z,15.73
2018-06-04T02:33:57.651Z,14.67
2018-06-04T02:36:26.376Z,14.83
2018-06-04T02:38:55.626Z,13.13
2018-06-04T02:41:24.271Z,14.70
2018-06-04T02:43:52.893Z,14.73
2018-06-04T02:46:21.547Z,13.80
2018-06-04T02:48:50.828Z,15.27
2018-06-04T02:51:19.510Z,13.87
2018-06-04T02:53:48.142Z,14.90
2018-06-04T02:56:17.069Z,14.33
2018-06-04T02:58:45.781Z,13.70
2018-06-04T03:01:14.420Z,14.03
2018-06-04T03:03:43.071Z,16.07
2018-06-04T03:06:11.758Z,18.90
2018-06-04T03:08:40.646Z,15.17
2018-06-04T03:11:09.756Z,16.27
2018-06-04T03:13:38.391Z,13.50
2018-06-04T03:16:06.994Z,15.30
2018-06-04T03:18:35.945Z,15.77
2018-06-04T03:21:04.767Z,15.80
2018-06-04T03:23:33.450Z,14.83
2018-06-04T03:26:02.113Z,14.87
2018-06-04T03:28:30.725Z,13.83
2018-06-04T03:30:59.451Z,15.17
2018-06-04T03:33:28.125Z,12.87
2018-06-04T03:35:56.976Z,13.23
2018-06-04T03:38:25.613Z,13.37
2018-06-04T03:40:54.480Z,13.67
2018-06-04T03:43:23.081Z,13.07
2018-06-04T03:45:51.691Z,12.27
2018-06-04T03:48:20.351Z,12.63
2018-06-04T03:50:48.650Z,12.70
2018-06-04T03:53:17.278Z,12.70
2018-06-04T03:55:46.136Z,14.50
2018-06-04T03:58:14.762Z,13.13
2018-06-04T04:00:43.701Z,14.60
2018-06-04T04:03:12.382Z,15.07
2018-06-04T04:05:40.997Z,15.60
2018-06-04T04:08:09.621Z,15.60
2018-06-04T04:10:38.275Z,16.67
2018-06-04T04:13:07.330Z,18.33
2018-06-04T04:15:36.030Z,17.67
2018-06-04T04:18:04.707Z,18.67
2018-06-04T04:20:33.310Z,19.43
2018-06-04T04:23:02.567Z,16.93
2018-06-04T04:25:31.480Z,17.90
2018-06-04T04:28:00.546Z,17.90
2018-06-04T04:30:29.178Z,18.57
2018-06-04T04:32:57.836Z,18.17
2018-06-04T04:35:26.475Z,17.80
2018-06-04T04:37:55.091Z,19.63
2018-06-04T04:40:23.919Z,18.50
2018-06-04T04:42:52.507Z,19.03
2018-06-04T04:45:21.747Z,16.20
2018-06-04T04:47:51.149Z,18.30
2018-06-04T04:50:19.777Z,16.93
2018-06-04T04:52:48.391Z,17.67
2018-06-04T04:55:17.153Z,17.10
2018-06-04T04:57:45.792Z,20.77
2018-06-04T05:00:14.463Z,16.67
2018-06-04T05:02:43.106Z,17.07
2018-06-04T05:05:11.724Z,16.77
2018-06-04T05:07:40.321Z,19.60
2018-06-04T05:10:08.948Z,20.40
2018-06-04T05:12:37.571Z,18.00
2018-06-04T05:15:06.451Z,17.83
2018-06-04T05:17:35.181Z,19.93
2018-06-04T05:20:04.808Z,19.20
2018-06-04T05:22:34.336Z,20.73
2018-06-04T05:25:03.926Z,18.60
2018-06-04T05:27:32.563Z,20.73
2018-06-04T05:30:01.196Z,19.73
2018-06-04T05:32:29.811Z,19.13
2018-06-04T05:34:58.477Z,21.57
2018-06-04T05:37:27.152Z,19.37
2018-06-04T05:39:55.925Z,21.93
2018-06-04T05:42:24.600Z,21.33
2018-06-04T05:44:53.179Z,22.27
2018-06-04T05:47:22.129Z,19.03
2018-06-04T05:49:50.777Z,20.40
2018-06-04T05:52:19.424Z,21.27
2018-06-04T05:54:48.891Z,17.10
2018-06-04T05:57:17.704Z,19.30
2018-06-04T05:59:46.358Z,18.67
2018-06-04T06:02:14.994Z,19.40
2018-06-04T06:04:43.661Z,20.47
2018-06-04T06:07:12.263Z,18.80
2018-06-04T06:09:40.903Z,19.40
2018-06-04T06:12:09.631Z,18.50
2018-06-04T06:14:38.284Z,19.80
2018-06-04T06:17:06.822Z,19.37
2018-06-04T06:19:35.565Z,19.90
2018-06-04T06:22:05.606Z,18.20
2018-06-04T06:24:34.306Z,19.27
2018-06-04T06:27:02.973Z,19.93
2018-06-04T06:29:31.738Z,19.60
2018-06-04T06:32:00.505Z,17.93
2018-06-04T06:34:29.781Z,17.67
2018-06-04T06:36:58.610Z,17.53
2018-06-04T06:39:27.367Z,17.57
2018-06-04T06:41:56.061Z,18.70
2018-06-04T06:44:24.854Z,19.27
2018-06-04T06:46:53.660Z,20.77
2018-06-04T06:49:22.360Z,20.03
2018-06-04T06:51:51.108Z,18.63
2018-06-04T06:54:20.528Z,19.17
2018-06-04T06:56:50.677Z,20.40
2018-06-04T06:59:19.461Z,17.50
2018-06-04T07:01:48.216Z,16.53
2018-06-04T07:04:17.807Z,16.97
2018-06-04T07:06:46.490Z,18.47
2018-06-04T07:09:14.853Z,18.67
2018-06-04T07:11:44.090Z,17.60
2018-06-04T07:14:12.814Z,19.40
2018-06-04T07:16:41.531Z,17.33
2018-06-04T07:19:10.207Z,18.83
2018-06-04T07:21:38.849Z,19.03
2018-06-04T07:24:08.113Z,18.40
2018-06-04T07:26:36.896Z,15.57
2018-06-04T07:29:06.350Z,19.13
2018-06-04T07:31:35.668Z,19.37
2018-06-04T07:34:04.329Z,18.47
2018-06-04T07:36:33.608Z,17.70
2018-06-04T07:39:02.420Z,16.80
2018-06-04T07:41:31.686Z,16.87
2018-06-04T07:44:00.313Z,16.87
2018-06-04T07:46:29.050Z,15.47
2018-06-04T07:48:57.847Z,13.33
2018-06-04T07:51:27.151Z,13.60
2018-06-04T07:53:56.574Z,12.23
2018-06-04T07:56:25.249Z,13.33
2018-06-04T07:58:54.436Z,15.73
2018-06-04T08:01:23.770Z,15.67
2018-06-04T08:03:52.459Z,17.10
2018-06-04T08:06:21.381Z,15.90
2018-06-04T08:08:50.711Z,13.63
2018-06-04T08:11:19.357Z,13.47
2018-06-04T08:13:48.010Z,12.40
2018-06-04T08:16:16.741Z,13.33
2018-06-04T08:18:45.468Z,13.17
2018-06-04T08:21:15.678Z,13.67
2018-06-04T08:23:44.361Z,13.77
2018-06-04T08:26:13.728Z,14.03
2018-06-04T08:28:42.572Z,14.23
2018-06-04T08:31:12.053Z,12.57
2018-06-04T08:33:40.715Z,12.63
2018-06-04T08:36:09.513Z,14.47
2018-06-04T08:38:38.204Z,14.37
2018-06-04T08:41:06.879Z,12.83
2018-06-04T08:43:35.548Z,12.17
2018-06-04T08:46:04.281Z,12.60
2018-06-04T08:48:33.601Z,10.72
2018-06-04T08:51:03.409Z,13.37
2018-06-04T08:53:32.709Z,13.30
2018-06-04T08:56:01.387Z,14.20
2018-06-04T08:58:31.658Z,13.30
2018-06-04T09:01:00.862Z,13.50
2018-06-04T09:03:29.557Z,11.63
2018-06-04T09:05:58.236Z,14.07
2018-06-04T09:08:26.994Z,12.40
2018-06-04T09:10:55.676Z,12.90
2018-06-04T09:13:25.189Z,11.00
2018-06-04T09:15:53.970Z,11.87
2018-06-04T09:18:22.721Z,11.83
2018-06-04T09:20:51.009Z,13.20
2018-06-04T09:23:20.357Z,13.47
2018-06-04T09:25:49.653Z,13.63
2018-06-04T09:28:18.397Z,13.67
2018-06-04T09:30:47.071Z,13.70
2018-06-04T09:33:15.750Z,14.70
2018-06-04T09:35:44.438Z,14.70
2018-06-04T09:38:13.104Z,12.47
2018-06-04T09:40:42.510Z,11.33
2018-06-04T09:43:11.193Z,11.97
2018-06-04T09:45:40.246Z,12.53
2018-06-04T09:48:09.576Z,14.20
2018-06-04T09:50:38.250Z,10.83
2018-06-04T09:53:06.949Z,12.40
2018-06-04T09:55:35.899Z,12.37
2018-06-04T09:58:04.836Z,13.80
2018-06-04T10:00:36.631Z,10.93
2018-06-04T10:03:05.737Z,11.37
2018-06-04T10:05:34.453Z,13.23
2018-06-04T10:08:04.629Z,12.47
2018-06-04T10:10:33.569Z,12.87
2018-06-04T10:13:02.832Z,10.23
2018-06-04T10:15:31.537Z,9.43
2018-06-04T10:18:00.973Z,10.50
2018-06-04T10:20:29.663Z,10.97
2018-06-04T10:22:59.167Z,12.67
2018-06-04T10:25:28.667Z,10.77
2018-06-04T10:27:57.357Z,10.13
2018-06-04T10:30:26.029Z,12.70
2018-06-04T10:32:54.712Z,13.30
2018-06-04T10:35:24.599Z,11.93
2018-06-04T10:37:53.234Z,9.70
2018-06-04T10:40:21.913Z,8.73
2018-06-04T10:42:50.548Z,8.90
2018-06-04T10:45:18.917Z,8.77
2018-06-04T10:47:47.596Z,10.13
2018-06-04T10:50:16.786Z,8.63
2018-06-04T10:52:45.481Z,9.30
2018-06-04T10:55:14.147Z,12.83
2018-06-04T10:57:42.958Z,11.77
2018-06-04T11:00:11.816Z,10.63
2018-06-04T11:02:40.486Z,10.07
2018-06-04T11:05:09.109Z,11.87
2018-06-04T11:07:37.766Z,12.03
2018-06-04T11:10:06.538Z,13.33
2018-06-04T11:12:35.202Z,16.50
2018-06-04T11:15:04.026Z,15.13
2018-06-04T11:17:32.698Z,16.03
2018-06-04T11:20:02.799Z,16.57
2018-06-04T11:22:31.467Z,17.13
2018-06-04T11:25:00.884Z,17.10
2018-06-04T11:27:29.488Z,15.33
2018-06-04T11:29:58.142Z,14.53
2018-06-04T11:32:26.756Z,16.97
2018-06-04T11:34:55.391Z,17.30
2018-06-04T11:37:24.045Z,17.40
2018-06-04T11:39:53.234Z,16.60
2018-06-04T11:42:21.832Z,17.90
2018-06-04T11:44:50.515Z,18.37
2018-06-04T11:47:19.149Z,15.50
2018-06-04T11:49:47.844Z,17.23
2018-06-04T11:52:16.492Z,15.20
2018-06-04T11:54:45.575Z,16.13
2018-06-04T11:57:14.178Z,17.17
2018-06-04T11:59:42.987Z,17.20
2018-06-04T12:02:11.604Z,17.97
2018-06-04T12:04:39.894Z,18.00
2018-06-04T12:07:08.542Z,17.37
2018-06-04T12:09:37.205Z,15.47
2018-06-04T12:12:05.809Z,16.47
2018-06-04T12:14:34.457Z,16.93
2018-06-04T12:17:03.080Z,16.43
2018-06-04T12:19:31.709Z,15.53
2018-06-04T12:22:00.362Z,18.57
2018-06-04T12:24:28.975Z,17.23
2018-06-04T12:26:57.577Z,16.70
2018-06-04T12:29:26.251Z,18.93
2018-06-04T12:31:55.239Z,18.20
2018-06-04T12:34:23.846Z,18.93
2018-06-04T12:36:52.465Z,17.83
2018-06-04T12:39:21.060Z,17.70
2018-06-04T12:41:49.676Z,17.97
2018-06-04T12:44:18.305Z,13.93
2018-06-04T12:46:46.909Z,18.40
2018-06-04T12:49:15.565Z,17.33
2018-06-04T12:51:44.257Z,18.10
2018-06-04T12:54:13.258Z,16.73
2018-06-04T12:56:42.525Z,17.53
2018-06-04T12:59:11.220Z,16.43
2018-06-04T13:01:40.957Z,15.97
2018-06-04T13:04:10.112Z,13.70
2018-06-04T13:06:38.748Z,15.93
2018-06-04T13:09:08.270Z,13.27
2018-06-04T13:11:38.057Z,16.97
2018-06-04T13:14:07.051Z,17.47
2018-06-04T13:16:36.312Z,15.80
2018-06-04T13:19:05.029Z,17.30
2018-06-04T13:21:33.684Z,16.83
2018-06-04T13:24:02.307Z,15.50
2018-06-04T13:26:30.933Z,15.57
2018-06-04T13:28:59.672Z,15.37
2018-06-04T13:31:28.293Z,16.57
2018-06-04T13:33:56.942Z,13.87
2018-06-04T13:36:25.560Z,14.80
2018-06-04T13:38:54.147Z,15.97
2018-06-04T13:41:22.745Z,17.07
2018-06-04T13:43:51.377Z,11.20
2018-06-04T13:46:20.440Z,14.17
2018-06-04T13:48:49.098Z,13.87
2018-06-04T13:51:17.761Z,12.40
2018-06-04T13:53:46.401Z,10.50
2018-06-04T13:56:15.114Z,13.73
2018-06-04T13:58:43.866Z,11.83
2018-06-04T14:01:12.555Z,14.73
2018-06-04T14:03:41.252Z,11.67
2018-06-04T14:06:10.101Z,12.50
2018-06-04T14:08:38.375Z,10.33
2018-06-04T14:11:07.013Z,11.27
2018-06-04T14:13:36.419Z,14.47
2018-06-04T14:16:05.152Z,14.97
2018-06-04T14:18:33.781Z,12.27
2018-06-04T14:21:02.407Z,13.20
2018-06-04T14:23:31.032Z,13.40
2018-06-04T14:25:59.308Z,12.83
2018-06-04T14:28:27.964Z,13.37
2018-06-04T14:30:56.626Z,13.47
2018-06-04T14:33:25.258Z,13.07
2018-06-04T14:35:53.893Z,13.17
2018-06-04T14:38:22.523Z,12.37
2018-06-04T14:40:51.244Z,12.53
2018-06-04T14:43:19.881Z,13.90
2018-06-04T14:45:48.513Z,13.40
2018-06-04T14:48:17.712Z,12.93
2018-06-04T14:50:46.942Z,13.40
2018-06-04T14:53:15.594Z,12.63
2018-06-04T14:55:44.198Z,11.23
2018-06-04T14:58:12.912Z,11.30
2018-06-04T15:00:41.529Z,11.97
2018-06-04T15:03:10.162Z,11.57
2018-06-04T15:05:38.865Z,13.67
2018-06-04T15:08:07.172Z,13.33
2018-06-04T15:10:35.778Z,13.13
2018-06-04T15:13:04.492Z,12.83
2018-06-04T15:15:33.146Z,11.70
2018-06-04T15:18:01.782Z,11.83
2018-06-04T15:20:30.488Z,12.07
2018-06-04T15:22:59.079Z,11.27
2018-06-04T15:25:27.343Z,12.60
2018-06-04T15:27:56.095Z,14.40
2018-06-04T15:30:24.728Z,12.03
2018-06-04T15:32:53.421Z,11.87
2018-06-04T15:35:22.057Z,13.93
2018-06-04T15:37:50.783Z,11.23
2018-06-04T15:40:19.378Z,12.73
2018-06-04T15:42:47.996Z,13.67
2018-06-04T15:45:16.634Z,14.00
2018-06-04T15:47:45.866Z,13.20
2018-06-04T15:50:14.196Z,15.67
2018-06-04T15:52:42.861Z,13.07
2018-06-04T15:55:11.510Z,14.33
2018-06-04T15:57:40.137Z,11.60
2018-06-04T16:00:08.760Z,13.43
2018-06-04T16:02:37.448Z,14.50
2018-06-04T16:05:06.082Z,12.60
2018-06-04T16:07:34.757Z,12.03
2018-06-04T16:10:03.520Z,12.10
2018-06-04T16:12:32.137Z,12.17
2018-06-04T16:15:00.739Z,12.93
2018-06-04T16:17:29.381Z,12.77
2018-06-04T16:19:58.029Z,13.37
2018-06-04T16:22:27.421Z,11.83
2018-06-04T16:24:55.691Z,13.73
2018-06-04T16:27:24.362Z,10.27
2018-06-04T16:29:52.976Z,11.30
2018-06-04T16:32:22.540Z,11.20
2018-06-04T16:34:51.293Z,13.50
2018-06-04T16:37:20.013Z,13.23
2018-06-04T16:39:48.744Z,9.90
2018-06-04T16:42:17.961Z,10.80
2018-06-04T16:44:46.278Z,10.10
2018-06-04T16:47:14.957Z,9.97
2018-06-04T16:49:43.630Z,10.07
2018-06-04T16:52:12.277Z,10.37
2018-06-04T16:54:40.956Z,10.23
2018-06-04T16:57:09.618Z,9.70
2018-06-04T16:59:38.379Z,10.37
2018-06-04T17:02:07.054Z,11.53
2018-06-04T17:04:35.693Z,10.57
2018-06-04T17:07:04.316Z,11.60
2018-06-04T17:09:32.962Z,10.03
2018-06-04T17:12:01.601Z,9.53
2018-06-04T17:14:30.258Z,10.47
2018-06-04T17:16:59.677Z,8.37
2018-06-04T17:19:28.387Z,11.70
2018-06-04T17:21:57.022Z,10.30
2018-06-04T17:24:26.331Z,9.10
2018-06-04T17:26:55.008Z,8.90
2018-06-04T17:29:23.974Z,9.93
2018-06-04T17:31:52.588Z,8.57
2018-06-04T17:34:21.249Z,9.33
2018-06-04T17:36:49.886Z,9.23
2018-06-04T17:39:18.764Z,9.27
2018-06-04T17:41:47.377Z,8.40
2018-06-04T17:44:16.025Z,9.23
2018-06-04T17:46:44.668Z,9.73
2018-06-04T17:49:13.938Z,9.47
2018-06-04T17:51:42.569Z,10.80
2018-06-04T17:54:11.442Z,9.80
2018-06-04T17:56:40.099Z,11.07
2018-06-04T17:59:08.723Z,10.17
2018-06-04T18:01:37.016Z,10.37
2018-06-04T18:04:05.865Z,11.53
2018-06-04T18:06:34.606Z,10.37
2018-06-04T18:09:03.169Z,11.13
2018-06-04T18:11:32.625Z,10.50
2018-06-04T18:14:01.247Z,10.70
2018-06-04T18:16:29.946Z,11.07
2018-06-04T18:18:58.600Z,8.87
2018-06-04T18:21:27.353Z,10.37
2018-06-04T18:23:55.684Z,11.00
2018-06-04T18:26:24.979Z,10.90
2018-06-04T18:28:53.631Z,10.97
2018-06-04T18:31:23.197Z,11.23
2018-06-04T18:33:51.997Z,10.93
2018-06-04T18:36:20.737Z,11.37
2018-06-04T18:38:49.404Z,11.03
2018-06-04T18:41:18.057Z,10.03
2018-06-04T18:43:47.353Z,10.53
2018-06-04T18:46:15.980Z,11.00
2018-06-04T18:48:44.377Z,9.67
2018-06-04T18:51:13.301Z,10.30
2018-06-04T18:53:42.010Z,9.90
2018-06-04T18:56:10.755Z,10.03
2018-06-04T18:58:39.612Z,9.57
2018-06-04T19:01:08.274Z,9.70
2018-06-04T19:03:37.078Z,9.80
2018-06-04T19:06:05.846Z,9.23
2018-06-04T19:08:35.708Z,9.60
2018-06-04T19:11:04.676Z,8.93
2018-06-04T19:13:33.896Z,10.00
2018-06-04T19:16:02.844Z,9.00
2018-06-04T19:18:31.511Z,8.30
2018-06-04T19:21:00.819Z,9.30
2018-06-04T19:23:29.268Z,9.70
2018-06-04T19:25:57.973Z,9.17
2018-06-04T19:28:28.386Z,9.07
2018-06-04T19:30:57.158Z,9.40
2018-06-04T19:33:25.849Z,9.27
2018-06-04T19:35:54.454Z,8.07
2018-06-04T19:38:23.106Z,8.43
2018-06-04T19:40:53.218Z,8.70
2018-06-04T19:43:23.613Z,8.50
2018-06-04T19:45:52.983Z,8.87
2018-06-04T19:48:21.776Z,7.43
2018-06-04T19:50:51.042Z,8.10
2018-06-04T19:53:20.348Z,9.33
2018-06-04T19:55:48.993Z,8.43
2018-06-04T19:58:19.060Z,7.60
2018-06-04T20:00:47.689Z,7.43
2018-06-04T20:03:16.445Z,7.87
2018-06-04T20:05:45.107Z,8.97
2018-06-04T20:08:13.731Z,8.27
2018-06-04T20:10:42.542Z,9.03
2018-06-04T20:13:11.199Z,9.00
2018-06-04T20:15:39.834Z,9.77
2018-06-04T20:18:08.525Z,10.80
2018-06-04T20:20:37.178Z,10.30
2018-06-04T20:23:05.968Z,9.07
2018-06-04T20:25:34.899Z,9.37
2018-06-04T20:28:03.570Z,10.33
2018-06-04T20:30:32.202Z,9.83
2018-06-04T20:33:00.951Z,8.80
2018-06-04T20:35:30.262Z,10.70
2018-06-04T20:37:59.670Z,9.73
2018-06-04T20:40:28.320Z,10.17
2018-06-04T20:42:57.053Z,9.93
2018-06-04T20:45:25.703Z,10.77
2018-06-04T20:47:54.336Z,10.80
2018-06-04T20:50:23.356Z,9.93
2018-06-04T20:52:52.682Z,10.90
2018-06-04T20:55:21.400Z,11.90
2018-06-04T20:57:50.165Z,11.07
2018-06-04T21:00:18.851Z,11.10
2018-06-04T21:02:47.491Z,11.63
2018-06-04T21:05:16.356Z,11.28
2018-06-04T21:07:45.174Z,11.57
2018-06-04T21:10:14.697Z,12.03
2018-06-04T21:12:43.404Z,10.50
2018-06-04T21:15:12.699Z,11.17
2018-06-04T21:17:41.423Z,11.17
2018-06-04T21:20:10.048Z,12.63
2018-06-04T21:22:38.748Z,12.97
2018-06-04T21:25:07.384Z,11.17
2018-06-04T21:27:36.216Z,11.23
2018-06-04T21:30:05.010Z,11.43
2018-06-04T21:32:33.670Z,12.50
2018-06-04T21:35:02.296Z,12.70
2018-06-04T21:37:31.001Z,12.23
2018-06-04T21:39:59.704Z,12.30
2018-06-04T21:42:28.387Z,12.47
2018-06-04T21:44:57.598Z,12.13
2018-06-04T21:47:27.178Z,13.47
2018-06-04T21:49:55.899Z,13.53
2018-06-04T21:52:24.581Z,11.60
2018-06-04T21:54:53.840Z,10.63
2018-06-04T21:57:22.597Z,12.03
2018-06-04T21:59:51.987Z,11.63
2018-06-04T22:02:20.833Z,11.33
2018-06-04T22:04:50.339Z,13.17
2018-06-04T22:07:19.026Z,12.13
2018-06-04T22:09:49.319Z,11.93
2018-06-04T22:12:18.060Z,11.00
2018-06-04T22:14:46.681Z,14.07
2018-06-04T22:17:15.311Z,12.27
2018-06-04T22:19:44.850Z,12.77
2018-06-04T22:22:13.690Z,14.17
2018-06-04T22:24:42.344Z,11.87
2018-06-04T22:27:11.009Z,12.37
2018-06-04T22:29:39.269Z,13.70
2018-06-04T22:32:07.929Z,13.00
2018-06-04T22:34:36.588Z,14.00
2018-06-04T22:37:05.257Z,13.23
2018-06-04T22:39:33.977Z,12.43
2018-06-04T22:42:02.676Z,12.00
2018-06-04T22:44:32.065Z,11.90
2018-06-04T22:47:01.340Z,12.47
2018-06-04T22:49:30.676Z,12.57
2018-06-04T22:51:59.292Z,12.67
2018-06-04T22:54:28.036Z,11.20
2018-06-04T22:56:56.752Z,10.77
2018-06-04T22:59:25.386Z,12.17
2018-06-04T23:01:54.065Z,11.13
2018-06-04T23:04:22.685Z,12.33
2018-06-04T23:06:51.766Z,12.93
2018-06-04T23:09:20.773Z,13.13
2018-06-04T23:11:49.444Z,11.57
2018-06-04T23:14:18.088Z,12.73
2018-06-04T23:16:46.793Z,13.70
2018-06-04T23:19:15.408Z,11.63
2018-06-04T23:21:43.699Z,12.30
2018-06-04T23:24:12.513Z,12.57
2018-06-04T23:26:41.128Z,13.17
2018-06-04T23:29:09.800Z,12.67
2018-06-04T23:31:38.664Z,12.10
2018-06-04T23:34:07.304Z,11.37
2018-06-04T23:36:35.960Z,11.87
2018-06-04T23:39:07.497Z,12.57
2018-06-04T23:41:36.165Z,11.23
2018-06-04T23:44:04.811Z,10.67
2018-06-04T23:46:33.444Z,11.63
2018-06-04T23:49:02.087Z,12.40
2018-06-04T23:51:30.720Z,12.33
2018-06-04T23:53:59.383Z,10.97
2018-06-04T23:56:28.024Z,11.73
2018-06-04T23:58:57.266Z,13.03
